首页
METAR-TAF:

METAR-TAF

机场 :

Revelstoke, 不列颠哥伦比亚, 加拿大

纬度: 50-58N, 经度: 118-11W, 海拔: 443米

当前天气观测

该预报发布于26分钟前的04:00 UTC
风速10节,风向
温度 4°C
湿度 65%
气压 1020 hPa
能見度: 14.5公里
多云层高于9100英尺

METAR: CYRV 110400Z AUTO 01010KT 9SM BKN091 04/M02 A3011 RMK SLP213

时间: 21:26 (04:26 UTC)


TAF: 丢失

超过4000个机场的气象观测和天气预报(METAR&TAF报告)。

可查询的气象台以黄色和红色小点在地图上表示。

将鼠标移到小点上方,可查看气象台名称。

然后点击查看天气观测和预报。

如需切换地图:点击带黑十字的绿色按钮放大地图;点击带横线的绿色按钮缩小地图;或者点击绿色箭头查看邻近地区的地图。


METAR-TAF: